sensor_id;sensor_type;location;lat;lon;timestamp;P1;durP1;ratioP1;P2;durP2;ratioP2
16969;SDS011;8601;48.718;8.992;2023-02-01T00:00:30;7.97;;;6.57;;
16969;SDS011;8601;48.718;8.992;2023-02-01T00:02:59;7.53;;;6.67;;
16969;SDS011;8601;48.718;8.992;2023-02-01T00:05:26;7.33;;;6.63;;
16969;SDS011;8601;48.718;8.992;2023-02-01T00:07:53;8.93;;;7.00;;
16969;SDS011;8601;48.718;8.992;2023-02-01T00:10:20;8.47;;;5.90;;
16969;SDS011;8601;48.718;8.992;2023-02-01T00:12:46;6.30;;;5.73;;
16969;SDS011;8601;48.718;8.992;2023-02-01T00:15:15;6.70;;;6.10;;
16969;SDS011;8601;48.718;8.992;2023-02-01T00:17:41;6.97;;;6.27;;
16969;SDS011;8601;48.718;8.992;2023-02-01T00:20:10;6.37;;;5.77;;
16969;SDS011;8601;48.718;8.992;2023-02-01T00:22:37;6.43;;;5.00;;
16969;SDS011;8601;48.718;8.992;2023-02-01T00:25:04;6.53;;;5.83;;
16969;SDS011;8601;48.718;8.992;2023-02-01T00:27:32;5.83;;;5.23;;
16969;SDS011;8601;48.718;8.992;2023-02-01T00:29:58;5.67;;;5.13;;
16969;SDS011;8601;48.718;8.992;2023-02-01T00:32:27;5.77;;;5.27;;
16969;SDS011;8601;48.718;8.992;2023-02-01T00:34:53;6.17;;;5.57;;
16969;SDS011;8601;48.718;8.992;2023-02-01T00:37:20;5.97;;;5.37;;
16969;SDS011;8601;48.718;8.992;2023-02-01T00:39:48;6.77;;;5.53;;
16969;SDS011;8601;48.718;8.992;2023-02-01T00:42:15;6.07;;;4.93;;
16969;SDS011;8601;48.718;8.992;2023-02-01T00:44:42;5.20;;;4.67;;
16969;SDS011;8601;48.718;8.992;2023-02-01T00:47:09;5.90;;;5.30;;
16969;SDS011;8601;48.718;8.992;2023-02-01T00:49:37;5.83;;;5.33;;
16969;SDS011;8601;48.718;8.992;2023-02-01T00:52:04;5.63;;;4.90;;
16969;SDS011;8601;48.718;8.992;2023-02-01T00:54:30;5.33;;;4.83;;
16969;SDS011;8601;48.718;8.992;2023-02-01T00:56:58;4.93;;;4.43;;
16969;SDS011;8601;48.718;8.992;2023-02-01T00:59:25;5.53;;;4.30;;
16969;SDS011;8601;48.718;8.992;2023-02-01T01:01:52;4.30;;;3.90;;
16969;SDS011;8601;48.718;8.992;2023-02-01T01:04:19;4.10;;;3.70;;
16969;SDS011;8601;48.718;8.992;2023-02-01T01:06:47;4.30;;;3.90;;
16969;SDS011;8601;48.718;8.992;2023-02-01T01:09:14;4.13;;;3.73;;
16969;SDS011;8601;48.718;8.992;2023-02-01T01:11:41;3.87;;;3.57;;
16969;SDS011;8601;48.718;8.992;2023-02-01T01:14:08;3.70;;;3.40;;
16969;SDS011;8601;48.718;8.992;2023-02-01T01:16:35;4.23;;;3.93;;
16969;SDS011;8601;48.718;8.992;2023-02-01T01:19:02;3.80;;;3.50;;
16969;SDS011;8601;48.718;8.992;2023-02-01T01:21:30;3.93;;;3.63;;
16969;SDS011;8601;48.718;8.992;2023-02-01T01:23:59;4.20;;;3.83;;
16969;SDS011;8601;48.718;8.992;2023-02-01T01:26:27;4.53;;;4.13;;
16969;SDS011;8601;48.718;8.992;2023-02-01T01:28:54;5.00;;;4.50;;
16969;SDS011;8601;48.718;8.992;2023-02-01T01:31:22;4.60;;;4.20;;
16969;SDS011;8601;48.718;8.992;2023-02-01T01:33:50;5.00;;;4.63;;
16969;SDS011;8601;48.718;8.992;2023-02-01T01:36:18;4.40;;;4.00;;
16969;SDS011;8601;48.718;8.992;2023-02-01T01:38:45;5.47;;;4.43;;
16969;SDS011;8601;48.718;8.992;2023-02-01T01:41:15;4.57;;;4.17;;
16969;SDS011;8601;48.718;8.992;2023-02-01T01:43:47;6.47;;;4.50;;
16969;SDS011;8601;48.718;8.992;2023-02-01T01:46:17;5.10;;;4.43;;
16969;SDS011;8601;48.718;8.992;2023-02-01T01:48:46;4.50;;;4.10;;
16969;SDS011;8601;48.718;8.992;2023-02-01T01:51:17;4.80;;;4.40;;
16969;SDS011;8601;48.718;8.992;2023-02-01T01:53:56;5.90;;;4.57;;
16969;SDS011;8601;48.718;8.992;2023-02-01T01:56:28;5.53;;;4.70;;
16969;SDS011;8601;48.718;8.992;2023-02-01T01:58:57;4.90;;;4.50;;
16969;SDS011;8601;48.718;8.992;2023-02-01T02:01:25;5.80;;;5.23;;
16969;SDS011;8601;48.718;8.992;2023-02-01T02:03:52;5.13;;;4.53;;
16969;SDS011;8601;48.718;8.992;2023-02-01T02:06:23;5.57;;;4.80;;
16969;SDS011;8601;48.718;8.992;2023-02-01T02:08:59;5.23;;;4.73;;
16969;SDS011;8601;48.718;8.992;2023-02-01T02:11:27;5.60;;;5.10;;
16969;SDS011;8601;48.718;8.992;2023-02-01T02:13:55;5.87;;;5.30;;
16969;SDS011;8601;48.718;8.992;2023-02-01T02:16:31;6.40;;;5.27;;
16969;SDS011;8601;48.718;8.992;2023-02-01T02:22:32;6.03;;;5.53;;
16969;SDS011;8601;48.718;8.992;2023-02-01T02:25:23;5.67;;;5.10;;
16969;SDS011;8601;48.718;8.992;2023-02-01T02:28:16;7.27;;;4.83;;
16969;SDS011;8601;48.718;8.992;2023-02-01T02:31:06;5.70;;;5.10;;
16969;SDS011;8601;48.718;8.992;2023-02-01T02:33:51;5.53;;;5.00;;
16969;SDS011;8601;48.718;8.992;2023-02-01T02:36:27;6.73;;;6.07;;
16969;SDS011;8601;48.718;8.992;2023-02-01T02:39:04;5.43;;;4.93;;
16969;SDS011;8601;48.718;8.992;2023-02-01T02:41:36;5.97;;;5.43;;
16969;SDS011;8601;48.718;8.992;2023-02-01T02:44:31;7.20;;;5.30;;
16969;SDS011;8601;48.718;8.992;2023-02-01T02:47:21;5.67;;;4.87;;
16969;SDS011;8601;48.718;8.992;2023-02-01T02:49:58;5.73;;;5.23;;
16969;SDS011;8601;48.718;8.992;2023-02-01T02:52:50;5.23;;;4.73;;
16969;SDS011;8601;48.718;8.992;2023-02-01T02:55:39;5.10;;;4.43;;
16969;SDS011;8601;48.718;8.992;2023-02-01T02:58:07;6.27;;;5.67;;
16969;SDS011;8601;48.718;8.992;2023-02-01T03:00:54;5.50;;;5.00;;
16969;SDS011;8601;48.718;8.992;2023-02-01T03:03:39;5.20;;;4.70;;
16969;SDS011;8601;48.718;8.992;2023-02-01T03:06:25;5.23;;;4.80;;
16969;SDS011;8601;48.718;8.992;2023-02-01T03:08:53;5.97;;;5.00;;
16969;SDS011;8601;48.718;8.992;2023-02-01T03:11:23;5.20;;;4.80;;
16969;SDS011;8601;48.718;8.992;2023-02-01T03:14:12;4.50;;;4.10;;
16969;SDS011;8601;48.718;8.992;2023-02-01T03:16:41;4.90;;;4.50;;
16969;SDS011;8601;48.718;8.992;2023-02-01T03:19:14;4.80;;;4.40;;
16969;SDS011;8601;48.718;8.992;2023-02-01T03:21:47;4.50;;;4.20;;
16969;SDS011;8601;48.718;8.992;2023-02-01T03:24:18;5.23;;;4.73;;
16969;SDS011;8601;48.718;8.992;2023-02-01T03:26:58;4.80;;;4.40;;
16969;SDS011;8601;48.718;8.992;2023-02-01T03:29:32;4.80;;;4.20;;
16969;SDS011;8601;48.718;8.992;2023-02-01T03:32:04;5.43;;;4.93;;
16969;SDS011;8601;48.718;8.992;2023-02-01T03:34:31;4.90;;;4.50;;
16969;SDS011;8601;48.718;8.992;2023-02-01T03:37:01;4.80;;;4.40;;
16969;SDS011;8601;48.718;8.992;2023-02-01T03:39:31;5.80;;;5.30;;
16969;SDS011;8601;48.718;8.992;2023-02-01T03:42:01;5.80;;;5.20;;
16969;SDS011;8601;48.718;8.992;2023-02-01T03:44:31;5.23;;;4.73;;
16969;SDS011;8601;48.718;8.992;2023-02-01T03:47:02;4.93;;;4.47;;
16969;SDS011;8601;48.718;8.992;2023-02-01T03:49:33;5.17;;;4.67;;
16969;SDS011;8601;48.718;8.992;2023-02-01T03:52:03;4.60;;;4.20;;
16969;SDS011;8601;48.718;8.992;2023-02-01T03:54:34;4.83;;;4.43;;
16969;SDS011;8601;48.718;8.992;2023-02-01T03:57:03;5.47;;;4.97;;
16969;SDS011;8601;48.718;8.992;2023-02-01T03:59:33;5.17;;;4.67;;
16969;SDS011;8601;48.718;8.992;2023-02-01T04:02:03;5.67;;;5.20;;
16969;SDS011;8601;48.718;8.992;2023-02-01T04:04:30;4.83;;;4.43;;
16969;SDS011;8601;48.718;8.992;2023-02-01T04:06:57;5.40;;;4.90;;
16969;SDS011;8601;48.718;8.992;2023-02-01T04:09:25;4.60;;;4.13;;
16969;SDS011;8601;48.718;8.992;2023-02-01T04:11:52;4.97;;;4.57;;
16969;SDS011;8601;48.718;8.992;2023-02-01T04:14:19;4.57;;;4.13;;
16969;SDS011;8601;48.718;8.992;2023-02-01T04:16:46;4.83;;;4.43;;
16969;SDS011;8601;48.718;8.992;2023-02-01T04:19:13;4.50;;;4.10;;
16969;SDS011;8601;48.718;8.992;2023-02-01T04:21:40;4.77;;;4.33;;
16969;SDS011;8601;48.718;8.992;2023-02-01T04:24:07;5.23;;;4.80;;
16969;SDS011;8601;48.718;8.992;2023-02-01T04:26:37;4.93;;;4.43;;
16969;SDS011;8601;48.718;8.992;2023-02-01T04:29:04;4.53;;;4.13;;
16969;SDS011;8601;48.718;8.992;2023-02-01T04:31:31;4.27;;;3.97;;
16969;SDS011;8601;48.718;8.992;2023-02-01T04:33:58;4.93;;;4.23;;
16969;SDS011;8601;48.718;8.992;2023-02-01T04:36:25;4.57;;;4.17;;
16969;SDS011;8601;48.718;8.992;2023-02-01T04:38:52;4.40;;;4.00;;
16969;SDS011;8601;48.718;8.992;2023-02-01T04:41:19;4.70;;;4.30;;
16969;SDS011;8601;48.718;8.992;2023-02-01T04:43:49;4.27;;;3.87;;
16969;SDS011;8601;48.718;8.992;2023-02-01T04:46:17;4.70;;;4.30;;
16969;SDS011;8601;48.718;8.992;2023-02-01T04:48:44;4.47;;;3.97;;
16969;SDS011;8601;48.718;8.992;2023-02-01T04:51:11;4.27;;;3.73;;
16969;SDS011;8601;48.718;8.992;2023-02-01T04:53:40;4.47;;;4.07;;
16969;SDS011;8601;48.718;8.992;2023-02-01T04:56:07;4.23;;;3.87;;
16969;SDS011;8601;48.718;8.992;2023-02-01T04:58:34;4.90;;;4.50;;
16969;SDS011;8601;48.718;8.992;2023-02-01T05:01:03;4.40;;;4.00;;
16969;SDS011;8601;48.718;8.992;2023-02-01T05:03:31;4.83;;;4.33;;
16969;SDS011;8601;48.718;8.992;2023-02-01T05:05:58;4.50;;;4.10;;
16969;SDS011;8601;48.718;8.992;2023-02-01T05:08:25;4.30;;;3.90;;
16969;SDS011;8601;48.718;8.992;2023-02-01T05:10:53;6.50;;;4.27;;
16969;SDS011;8601;48.718;8.992;2023-02-01T05:13:20;4.77;;;3.73;;
16969;SDS011;8601;48.718;8.992;2023-02-01T05:16:06;4.57;;;3.53;;
16969;SDS011;8601;48.718;8.992;2023-02-01T05:18:33;4.10;;;3.57;;
16969;SDS011;8601;48.718;8.992;2023-02-01T05:21:00;4.73;;;4.33;;
16969;SDS011;8601;48.718;8.992;2023-02-01T05:23:27;5.03;;;3.40;;
16969;SDS011;8601;48.718;8.992;2023-02-01T05:25:57;4.27;;;3.87;;
16969;SDS011;8601;48.718;8.992;2023-02-01T05:28:25;7.53;;;3.53;;
16969;SDS011;8601;48.718;8.992;2023-02-01T05:30:52;3.70;;;3.40;;
16969;SDS011;8601;48.718;8.992;2023-02-01T05:33:21;5.00;;;3.67;;
16969;SDS011;8601;48.718;8.992;2023-02-01T05:35:48;3.90;;;3.60;;
16969;SDS011;8601;48.718;8.992;2023-02-01T05:38:15;3.67;;;3.10;;
16969;SDS011;8601;48.718;8.992;2023-02-01T05:40:42;3.47;;;2.87;;
16969;SDS011;8601;48.718;8.992;2023-02-01T05:43:14;4.17;;;3.77;;
16969;SDS011;8601;48.718;8.992;2023-02-01T05:45:41;3.50;;;3.20;;
16969;SDS011;8601;48.718;8.992;2023-02-01T05:48:09;3.87;;;3.13;;
16969;SDS011;8601;48.718;8.992;2023-02-01T05:50:37;3.33;;;3.10;;
16969;SDS011;8601;48.718;8.992;2023-02-01T05:53:04;3.70;;;3.40;;
16969;SDS011;8601;48.718;8.992;2023-02-01T05:55:31;5.67;;;3.20;;
16969;SDS011;8601;48.718;8.992;2023-02-01T05:57:58;3.50;;;3.20;;
16969;SDS011;8601;48.718;8.992;2023-02-01T06:00:25;7.13;;;4.10;;
16969;SDS011;8601;48.718;8.992;2023-02-01T06:02:52;4.13;;;3.17;;
16969;SDS011;8601;48.718;8.992;2023-02-01T06:05:19;3.47;;;3.13;;
16969;SDS011;8601;48.718;8.992;2023-02-01T06:07:48;2.90;;;2.70;;
16969;SDS011;8601;48.718;8.992;2023-02-01T06:10:15;3.27;;;2.97;;
16969;SDS011;8601;48.718;8.992;2023-02-01T06:12:43;3.43;;;3.07;;
16969;SDS011;8601;48.718;8.992;2023-02-01T06:15:11;2.97;;;2.77;;
16969;SDS011;8601;48.718;8.992;2023-02-01T06:17:40;3.30;;;3.10;;
16969;SDS011;8601;48.718;8.992;2023-02-01T06:20:09;4.17;;;2.97;;
16969;SDS011;8601;48.718;8.992;2023-02-01T06:22:37;3.43;;;3.10;;
16969;SDS011;8601;48.718;8.992;2023-02-01T06:25:08;3.33;;;3.03;;
16969;SDS011;8601;48.718;8.992;2023-02-01T06:27:36;3.70;;;3.17;;
16969;SDS011;8601;48.718;8.992;2023-02-01T06:30:04;3.43;;;2.77;;
16969;SDS011;8601;48.718;8.992;2023-02-01T06:32:32;5.00;;;3.67;;
16969;SDS011;8601;48.718;8.992;2023-02-01T06:34:59;3.93;;;3.63;;
16969;SDS011;8601;48.718;8.992;2023-02-01T06:37:26;3.77;;;3.23;;
16969;SDS011;8601;48.718;8.992;2023-02-01T06:39:54;5.13;;;3.57;;
16969;SDS011;8601;48.718;8.992;2023-02-01T06:42:23;3.87;;;2.87;;
16969;SDS011;8601;48.718;8.992;2023-02-01T06:44:50;5.37;;;3.10;;
16969;SDS011;8601;48.718;8.992;2023-02-01T06:47:17;4.37;;;3.27;;
16969;SDS011;8601;48.718;8.992;2023-02-01T06:49:44;4.73;;;3.33;;
16969;SDS011;8601;48.718;8.992;2023-02-01T06:52:11;3.67;;;3.37;;
16969;SDS011;8601;48.718;8.992;2023-02-01T06:54:38;7.17;;;4.60;;
16969;SDS011;8601;48.718;8.992;2023-02-01T06:57:05;5.47;;;3.57;;
16969;SDS011;8601;48.718;8.992;2023-02-01T06:59:33;5.00;;;3.03;;
16969;SDS011;8601;48.718;8.992;2023-02-01T07:02:00;6.77;;;3.70;;
16969;SDS011;8601;48.718;8.992;2023-02-01T07:04:27;3.60;;;3.10;;
16969;SDS011;8601;48.718;8.992;2023-02-01T07:06:55;3.70;;;3.40;;
16969;SDS011;8601;48.718;8.992;2023-02-01T07:09:22;3.23;;;2.93;;
16969;SDS011;8601;48.718;8.992;2023-02-01T07:11:50;3.87;;;3.10;;
16969;SDS011;8601;48.718;8.992;2023-02-01T07:14:16;4.50;;;2.83;;
16969;SDS011;8601;48.718;8.992;2023-02-01T07:16:45;3.17;;;2.93;;
16969;SDS011;8601;48.718;8.992;2023-02-01T07:19:11;3.40;;;2.90;;
16969;SDS011;8601;48.718;8.992;2023-02-01T07:21:38;4.00;;;3.47;;
16969;SDS011;8601;48.718;8.992;2023-02-01T07:24:06;4.40;;;3.00;;
16969;SDS011;8601;48.718;8.992;2023-02-01T07:26:33;3.33;;;2.93;;
16969;SDS011;8601;48.718;8.992;2023-02-01T07:29:00;4.20;;;3.33;;
16969;SDS011;8601;48.718;8.992;2023-02-01T07:31:27;4.63;;;3.50;;
16969;SDS011;8601;48.718;8.992;2023-02-01T07:33:55;4.73;;;2.77;;
16969;SDS011;8601;48.718;8.992;2023-02-01T07:36:23;4.77;;;2.77;;
16969;SDS011;8601;48.718;8.992;2023-02-01T07:38:50;3.47;;;3.00;;
16969;SDS011;8601;48.718;8.992;2023-02-01T07:41:17;2.93;;;2.67;;
16969;SDS011;8601;48.718;8.992;2023-02-01T07:43:44;6.00;;;3.07;;
16969;SDS011;8601;48.718;8.992;2023-02-01T07:46:11;6.90;;;3.77;;
16969;SDS011;8601;48.718;8.992;2023-02-01T07:48:40;3.60;;;2.83;;
16969;SDS011;8601;48.718;8.992;2023-02-01T07:51:10;3.33;;;2.60;;
16969;SDS011;8601;48.718;8.992;2023-02-01T07:53:38;6.83;;;3.50;;
16969;SDS011;8601;48.718;8.992;2023-02-01T07:56:09;6.10;;;2.87;;
16969;SDS011;8601;48.718;8.992;2023-02-01T07:58:37;4.50;;;2.80;;
16969;SDS011;8601;48.718;8.992;2023-02-01T08:01:04;4.20;;;3.33;;
16969;SDS011;8601;48.718;8.992;2023-02-01T08:03:49;5.67;;;3.20;;
16969;SDS011;8601;48.718;8.992;2023-02-01T08:06:19;4.27;;;3.40;;
16969;SDS011;8601;48.718;8.992;2023-02-01T08:08:47;4.10;;;3.40;;
16969;SDS011;8601;48.718;8.992;2023-02-01T08:11:18;6.30;;;3.50;;
16969;SDS011;8601;48.718;8.992;2023-02-01T08:13:46;6.30;;;3.20;;
16969;SDS011;8601;48.718;8.992;2023-02-01T08:16:14;4.57;;;3.50;;
16969;SDS011;8601;48.718;8.992;2023-02-01T08:18:42;4.30;;;3.07;;
16969;SDS011;8601;48.718;8.992;2023-02-01T08:21:11;7.53;;;3.30;;
16969;SDS011;8601;48.718;8.992;2023-02-01T08:23:41;4.90;;;3.53;;
16969;SDS011;8601;48.718;8.992;2023-02-01T08:26:09;5.07;;;2.83;;
16969;SDS011;8601;48.718;8.992;2023-02-01T08:28:39;7.20;;;3.63;;
16969;SDS011;8601;48.718;8.992;2023-02-01T08:31:08;4.80;;;3.40;;
16969;SDS011;8601;48.718;8.992;2023-02-01T08:33:37;7.93;;;3.53;;
16969;SDS011;8601;48.718;8.992;2023-02-01T08:36:04;4.33;;;3.23;;
16969;SDS011;8601;48.718;8.992;2023-02-01T08:38:34;6.83;;;3.40;;
16969;SDS011;8601;48.718;8.992;2023-02-01T08:41:09;5.13;;;3.33;;
16969;SDS011;8601;48.718;8.992;2023-02-01T08:43:37;6.87;;;3.73;;
16969;SDS011;8601;48.718;8.992;2023-02-01T08:46:04;8.80;;;3.57;;
16969;SDS011;8601;48.718;8.992;2023-02-01T08:48:32;5.77;;;3.13;;
16969;SDS011;8601;48.718;8.992;2023-02-01T08:51:00;10.20;;;3.53;;
16969;SDS011;8601;48.718;8.992;2023-02-01T08:53:28;5.03;;;3.43;;
16969;SDS011;8601;48.718;8.992;2023-02-01T08:55:55;10.77;;;3.60;;
16969;SDS011;8601;48.718;8.992;2023-02-01T08:58:23;8.13;;;3.40;;
16969;SDS011;8601;48.718;8.992;2023-02-01T09:00:50;8.07;;;3.20;;
16969;SDS011;8601;48.718;8.992;2023-02-01T09:03:17;7.03;;;3.17;;
16969;SDS011;8601;48.718;8.992;2023-02-01T09:05:44;5.63;;;3.20;;
16969;SDS011;8601;48.718;8.992;2023-02-01T09:08:11;6.73;;;3.33;;
16969;SDS011;8601;48.718;8.992;2023-02-01T09:10:40;8.67;;;3.20;;
16969;SDS011;8601;48.718;8.992;2023-02-01T09:13:07;7.17;;;3.27;;
16969;SDS011;8601;48.718;8.992;2023-02-01T09:15:36;6.77;;;3.23;;
16969;SDS011;8601;48.718;8.992;2023-02-01T09:18:03;7.33;;;3.30;;
16969;SDS011;8601;48.718;8.992;2023-02-01T09:20:30;8.13;;;3.70;;
16969;SDS011;8601;48.718;8.992;2023-02-01T09:22:57;7.33;;;3.53;;
16969;SDS011;8601;48.718;8.992;2023-02-01T09:25:25;9.73;;;3.33;;
16969;SDS011;8601;48.718;8.992;2023-02-01T09:27:52;6.83;;;3.20;;
16969;SDS011;8601;48.718;8.992;2023-02-01T09:30:20;5.53;;;3.90;;
16969;SDS011;8601;48.718;8.992;2023-02-01T09:32:48;6.80;;;3.40;;
16969;SDS011;8601;48.718;8.992;2023-02-01T09:35:15;8.03;;;3.67;;
16969;SDS011;8601;48.718;8.992;2023-02-01T09:37:42;10.73;;;4.23;;
16969;SDS011;8601;48.718;8.992;2023-02-01T09:40:10;10.07;;;4.80;;
16969;SDS011;8601;48.718;8.992;2023-02-01T09:42:48;9.47;;;3.83;;
16969;SDS011;8601;48.718;8.992;2023-02-01T09:45:38;8.03;;;3.70;;
16969;SDS011;8601;48.718;8.992;2023-02-01T09:48:17;9.13;;;4.40;;
16969;SDS011;8601;48.718;8.992;2023-02-01T09:50:48;9.40;;;4.47;;
16969;SDS011;8601;48.718;8.992;2023-02-01T09:53:18;8.43;;;4.50;;
16969;SDS011;8601;48.718;8.992;2023-02-01T09:55:51;9.97;;;5.13;;
16969;SDS011;8601;48.718;8.992;2023-02-01T09:58:22;7.50;;;3.73;;
16969;SDS011;8601;48.718;8.992;2023-02-01T10:00:54;9.77;;;3.50;;
16969;SDS011;8601;48.718;8.992;2023-02-01T10:03:24;7.60;;;3.63;;
16969;SDS011;8601;48.718;8.992;2023-02-01T10:05:58;10.93;;;4.50;;
16969;SDS011;8601;48.718;8.992;2023-02-01T10:08:54;9.33;;;3.33;;
16969;SDS011;8601;48.718;8.992;2023-02-01T10:11:31;7.33;;;3.93;;
16969;SDS011;8601;48.718;8.992;2023-02-01T10:14:16;9.77;;;3.67;;
16969;SDS011;8601;48.718;8.992;2023-02-01T10:16:58;6.10;;;3.10;;
16969;SDS011;8601;48.718;8.992;2023-02-01T10:19:36;5.03;;;2.87;;
16969;SDS011;8601;48.718;8.992;2023-02-01T10:22:10;7.83;;;3.37;;
16969;SDS011;8601;48.718;8.992;2023-02-01T10:24:41;11.77;;;3.10;;
16969;SDS011;8601;48.718;8.992;2023-02-01T10:27:16;7.60;;;2.67;;
16969;SDS011;8601;48.718;8.992;2023-02-01T10:29:47;11.57;;;3.77;;
16969;SDS011;8601;48.718;8.992;2023-02-01T10:32:20;8.07;;;3.40;;
16969;SDS011;8601;48.718;8.992;2023-02-01T10:34:51;9.47;;;2.90;;
16969;SDS011;8601;48.718;8.992;2023-02-01T10:37:24;7.77;;;3.50;;
16969;SDS011;8601;48.718;8.992;2023-02-01T10:39:54;9.17;;;3.63;;
16969;SDS011;8601;48.718;8.992;2023-02-01T10:42:24;7.97;;;2.80;;
16969;SDS011;8601;48.718;8.992;2023-02-01T10:44:53;12.33;;;3.50;;
16969;SDS011;8601;48.718;8.992;2023-02-01T10:47:22;8.77;;;4.30;;
16969;SDS011;8601;48.718;8.992;2023-02-01T10:49:52;6.80;;;3.20;;
16969;SDS011;8601;48.718;8.992;2023-02-01T10:52:29;8.83;;;3.17;;
16969;SDS011;8601;48.718;8.992;2023-02-01T10:58:05;7.23;;;3.10;;
16969;SDS011;8601;48.718;8.992;2023-02-01T11:00:36;6.07;;;2.93;;
16969;SDS011;8601;48.718;8.992;2023-02-01T11:03:19;9.83;;;3.10;;
16969;SDS011;8601;48.718;8.992;2023-02-01T11:06:02;6.13;;;3.13;;
16969;SDS011;8601;48.718;8.992;2023-02-01T11:08:41;6.80;;;3.27;;
16969;SDS011;8601;48.718;8.992;2023-02-01T11:11:10;7.17;;;3.60;;
16969;SDS011;8601;48.718;8.992;2023-02-01T11:13:38;10.97;;;2.93;;
16969;SDS011;8601;48.718;8.992;2023-02-01T11:16:06;7.40;;;2.80;;
16969;SDS011;8601;48.718;8.992;2023-02-01T11:18:39;9.10;;;3.80;;
16969;SDS011;8601;48.718;8.992;2023-02-01T11:21:08;9.43;;;3.53;;
16969;SDS011;8601;48.718;8.992;2023-02-01T11:23:39;12.13;;;3.53;;
16969;SDS011;8601;48.718;8.992;2023-02-01T11:26:10;8.03;;;3.40;;
16969;SDS011;8601;48.718;8.992;2023-02-01T11:28:40;7.17;;;3.10;;
16969;SDS011;8601;48.718;8.992;2023-02-01T11:31:14;10.67;;;3.63;;
16969;SDS011;8601;48.718;8.992;2023-02-01T11:33:44;7.83;;;2.90;;
16969;SDS011;8601;48.718;8.992;2023-02-01T11:36:18;8.03;;;3.07;;
16969;SDS011;8601;48.718;8.992;2023-02-01T11:38:51;8.30;;;3.97;;
16969;SDS011;8601;48.718;8.992;2023-02-01T11:41:23;8.73;;;3.13;;
16969;SDS011;8601;48.718;8.992;2023-02-01T11:43:52;7.60;;;3.10;;
16969;SDS011;8601;48.718;8.992;2023-02-01T11:46:22;9.70;;;3.07;;
16969;SDS011;8601;48.718;8.992;2023-02-01T11:48:53;6.00;;;3.03;;
16969;SDS011;8601;48.718;8.992;2023-02-01T11:51:26;8.07;;;3.00;;
16969;SDS011;8601;48.718;8.992;2023-02-01T11:54:18;9.40;;;3.60;;
16969;SDS011;8601;48.718;8.992;2023-02-01T11:57:04;9.27;;;2.93;;
16969;SDS011;8601;48.718;8.992;2023-02-01T11:59:46;8.80;;;4.07;;
16969;SDS011;8601;48.718;8.992;2023-02-01T12:05:31;10.93;;;3.53;;
16969;SDS011;8601;48.718;8.992;2023-02-01T12:08:09;11.27;;;3.17;;
16969;SDS011;8601;48.718;8.992;2023-02-01T12:10:51;8.00;;;3.10;;
16969;SDS011;8601;48.718;8.992;2023-02-01T12:13:33;10.57;;;3.50;;
16969;SDS011;8601;48.718;8.992;2023-02-01T12:16:16;8.73;;;2.80;;
16969;SDS011;8601;48.718;8.992;2023-02-01T12:21:56;11.73;;;3.40;;
16969;SDS011;8601;48.718;8.992;2023-02-01T12:24:40;7.20;;;3.43;;
16969;SDS011;8601;48.718;8.992;2023-02-01T12:30:32;9.53;;;3.13;;
16969;SDS011;8601;48.718;8.992;2023-02-01T12:33:14;9.33;;;3.37;;
16969;SDS011;8601;48.718;8.992;2023-02-01T12:35:55;8.33;;;2.70;;
16969;SDS011;8601;48.718;8.992;2023-02-01T12:38:51;8.73;;;3.53;;
16969;SDS011;8601;48.718;8.992;2023-02-01T12:41:35;8.67;;;2.93;;
16969;SDS011;8601;48.718;8.992;2023-02-01T12:44:17;7.73;;;3.23;;
16969;SDS011;8601;48.718;8.992;2023-02-01T12:47:06;7.80;;;2.90;;
16969;SDS011;8601;48.718;8.992;2023-02-01T12:49:42;13.63;;;2.90;;
16969;SDS011;8601;48.718;8.992;2023-02-01T12:52:15;6.77;;;2.90;;
16969;SDS011;8601;48.718;8.992;2023-02-01T12:54:47;7.53;;;3.20;;
16969;SDS011;8601;48.718;8.992;2023-02-01T12:57:21;5.50;;;2.53;;
16969;SDS011;8601;48.718;8.992;2023-02-01T12:59:53;8.83;;;2.87;;
16969;SDS011;8601;48.718;8.992;2023-02-01T13:02:28;8.27;;;2.80;;
16969;SDS011;8601;48.718;8.992;2023-02-01T13:05:04;9.30;;;3.13;;
16969;SDS011;8601;48.718;8.992;2023-02-01T13:07:41;5.57;;;2.63;;
16969;SDS011;8601;48.718;8.992;2023-02-01T13:10:12;8.77;;;3.57;;
16969;SDS011;8601;48.718;8.992;2023-02-01T13:12:44;10.43;;;2.93;;
16969;SDS011;8601;48.718;8.992;2023-02-01T13:15:19;6.70;;;3.10;;
16969;SDS011;8601;48.718;8.992;2023-02-01T13:17:50;6.87;;;2.63;;
16969;SDS011;8601;48.718;8.992;2023-02-01T13:20:21;13.10;;;4.40;;
16969;SDS011;8601;48.718;8.992;2023-02-01T13:22:53;9.10;;;3.30;;
16969;SDS011;8601;48.718;8.992;2023-02-01T13:25:27;9.37;;;3.60;;
16969;SDS011;8601;48.718;8.992;2023-02-01T13:28:00;9.40;;;4.77;;
16969;SDS011;8601;48.718;8.992;2023-02-01T13:30:36;8.13;;;3.10;;
16969;SDS011;8601;48.718;8.992;2023-02-01T13:33:28;7.83;;;2.60;;
16969;SDS011;8601;48.718;8.992;2023-02-01T13:36:13;7.53;;;2.70;;
16969;SDS011;8601;48.718;8.992;2023-02-01T13:41:51;8.77;;;3.00;;
16969;SDS011;8601;48.718;8.992;2023-02-01T13:44:23;8.00;;;3.13;;
16969;SDS011;8601;48.718;8.992;2023-02-01T13:46:56;7.23;;;2.40;;
16969;SDS011;8601;48.718;8.992;2023-02-01T13:49:26;7.90;;;3.37;;
16969;SDS011;8601;48.718;8.992;2023-02-01T13:51:55;3.87;;;2.70;;
16969;SDS011;8601;48.718;8.992;2023-02-01T13:54:25;6.07;;;3.40;;
16969;SDS011;8601;48.718;8.992;2023-02-01T13:56:54;9.33;;;4.30;;
16969;SDS011;8601;48.718;8.992;2023-02-01T13:59:46;5.20;;;2.90;;
16969;SDS011;8601;48.718;8.992;2023-02-01T14:05:03;7.27;;;2.90;;
16969;SDS011;8601;48.718;8.992;2023-02-01T14:07:31;4.57;;;2.77;;
16969;SDS011;8601;48.718;8.992;2023-02-01T14:09:58;4.57;;;2.97;;
16969;SDS011;8601;48.718;8.992;2023-02-01T14:12:43;7.70;;;3.97;;
16969;SDS011;8601;48.718;8.992;2023-02-01T14:15:21;5.87;;;2.70;;
16969;SDS011;8601;48.718;8.992;2023-02-01T14:17:52;7.33;;;2.63;;
16969;SDS011;8601;48.718;8.992;2023-02-01T14:23:21;9.60;;;4.87;;
16969;SDS011;8601;48.718;8.992;2023-02-01T14:26:03;7.33;;;2.90;;
16969;SDS011;8601;48.718;8.992;2023-02-01T14:28:57;7.37;;;2.97;;
16969;SDS011;8601;48.718;8.992;2023-02-01T14:31:37;10.17;;;2.90;;
16969;SDS011;8601;48.718;8.992;2023-02-01T14:34:16;7.53;;;3.60;;
16969;SDS011;8601;48.718;8.992;2023-02-01T14:36:47;9.53;;;3.10;;
16969;SDS011;8601;48.718;8.992;2023-02-01T14:39:27;9.63;;;3.23;;
16969;SDS011;8601;48.718;8.992;2023-02-01T14:42:03;8.67;;;3.20;;
16969;SDS011;8601;48.718;8.992;2023-02-01T14:44:33;8.63;;;3.47;;
16969;SDS011;8601;48.718;8.992;2023-02-01T14:50:18;10.90;;;3.30;;
16969;SDS011;8601;48.718;8.992;2023-02-01T14:53:17;14.23;;;3.90;;
16969;SDS011;8601;48.718;8.992;2023-02-01T14:55:49;9.83;;;3.77;;
16969;SDS011;8601;48.718;8.992;2023-02-01T14:58:21;9.40;;;3.60;;
16969;SDS011;8601;48.718;8.992;2023-02-01T15:00:58;6.77;;;3.23;;
16969;SDS011;8601;48.718;8.992;2023-02-01T15:03:38;7.43;;;3.73;;
16969;SDS011;8601;48.718;8.992;2023-02-01T15:06:22;10.00;;;3.10;;
16969;SDS011;8601;48.718;8.992;2023-02-01T15:08:57;9.07;;;3.63;;
16969;SDS011;8601;48.718;8.992;2023-02-01T15:11:26;9.20;;;3.20;;
16969;SDS011;8601;48.718;8.992;2023-02-01T15:13:53;7.10;;;3.47;;
16969;SDS011;8601;48.718;8.992;2023-02-01T15:16:21;10.67;;;3.40;;
16969;SDS011;8601;48.718;8.992;2023-02-01T15:18:51;11.27;;;3.40;;
16969;SDS011;8601;48.718;8.992;2023-02-01T15:21:41;9.20;;;3.57;;
16969;SDS011;8601;48.718;8.992;2023-02-01T15:24:11;8.23;;;3.00;;
16969;SDS011;8601;48.718;8.992;2023-02-01T15:26:39;7.00;;;3.00;;
16969;SDS011;8601;48.718;8.992;2023-02-01T15:29:09;7.87;;;3.57;;
16969;SDS011;8601;48.718;8.992;2023-02-01T15:31:39;8.33;;;3.83;;
16969;SDS011;8601;48.718;8.992;2023-02-01T15:34:09;8.50;;;4.83;;
16969;SDS011;8601;48.718;8.992;2023-02-01T15:36:36;6.50;;;3.07;;
16969;SDS011;8601;48.718;8.992;2023-02-01T15:41:57;10.53;;;3.97;;
16969;SDS011;8601;48.718;8.992;2023-02-01T15:44:31;8.17;;;2.83;;
16969;SDS011;8601;48.718;8.992;2023-02-01T15:47:05;8.90;;;3.07;;
16969;SDS011;8601;48.718;8.992;2023-02-01T15:49:39;5.77;;;3.00;;
16969;SDS011;8601;48.718;8.992;2023-02-01T15:52:14;6.50;;;2.77;;
16969;SDS011;8601;48.718;8.992;2023-02-01T15:54:47;4.97;;;2.53;;
16969;SDS011;8601;48.718;8.992;2023-02-01T15:57:20;4.77;;;2.60;;